Time;durP1;ratioP1;P1;durP2;ratioP2;P2;SDS_P1;SDS_P2;PMS_P1;PMS_P2;Temp;Humidity;BMP_temperature;BMP_pressure;BME280_temperature;BME280_humidity;BME280_pressure;Samples;Min_cycle;Max_cycle;Signal;HPM_P1;HPM_P2
2024/01/19 00:01:21;;;;;;;;;;;-0.90;99.90;;;;;;5133087;27;19968;-33
2024/01/19 00:03:48;;;;;;;;;;;-0.90;99.90;;;;;;5115837;27;19923;-32
2024/01/19 00:06:15;;;;;;;;;;;-0.90;99.90;;;;;;5115344;27;19927;-31
2024/01/19 00:08:42;;;;;;;;;;;-1.00;99.90;;;;;;5116241;27;20281;-32
2024/01/19 00:11:15;;;;;;;;;;;-1.00;99.90;;;;;;5115333;27;19935;-31
2024/01/19 00:13:41;;;;;;;;;;;-1.00;99.90;;;;;;5116006;27;19923;-32
2024/01/19 00:16:08;;;;;;;;;;;-1.00;99.90;;;;;;5116156;27;20024;-31
2024/01/19 00:18:34;;;;;;;;;;;-1.00;99.90;;;;;;5115106;27;19978;-32
2024/01/19 00:21:01;;;;;;;;;;;-1.00;99.90;;;;;;5115249;27;19931;-31
2024/01/19 00:23:28;;;;;;;;;;;-1.00;99.90;;;;;;5133631;27;20275;-32
2024/01/19 00:25:54;;;;;;;;;;;-0.90;99.90;;;;;;5114924;27;19968;-31
2024/01/19 00:28:22;;;;;;;;;;;-1.00;99.90;;;;;;5133990;27;19976;-31
2024/01/19 00:30:49;;;;;;;;;;;-1.00;99.90;;;;;;5115455;27;19976;-32
2024/01/19 00:33:16;;;;;;;;;;;-1.00;99.90;;;;;;5115516;27;19927;-32
2024/01/19 00:35:42;;;;;;;;;;;-1.00;99.90;;;;;;5115549;27;19924;-32
2024/01/19 00:38:09;;;;;;;;;;;-1.10;99.90;;;;;;5115095;27;19927;-33
2024/01/19 00:40:35;;;;;;;;;;;-1.10;99.90;;;;;;5095722;28;20344;-32
2024/01/19 00:43:03;;;;;;;;;;;-1.20;99.90;;;;;;5097170;27;19973;-32
2024/01/19 00:45:31;;;;;;;;;;;-1.20;99.90;;;;;;5132864;27;19930;-33
2024/01/19 00:47:57;;;;;;;;;;;-1.20;99.90;;;;;;5114282;27;19924;-32
2024/01/19 00:50:24;;;;;;;;;;;-1.20;99.90;;;;;;5114035;27;20367;-32
2024/01/19 00:52:51;;;;;;;;;;;-1.20;99.90;;;;;;5104883;28;19981;-31
2024/01/19 00:55:17;;;;;;;;;;;-1.20;99.90;;;;;;5100375;27;20032;-31
2024/01/19 00:57:44;;;;;;;;;;;-1.20;99.90;;;;;;5133122;27;19976;-31
2024/01/19 01:00:11;;;;;;;;;;;-1.20;99.90;;;;;;5114200;27;19927;-32
2024/01/19 01:02:39;;;;;;;;;;;-1.20;99.90;;;;;;5131609;27;19968;-32
2024/01/19 01:05:07;;;;;;;;;;;-1.20;99.90;;;;;;5114426;27;19976;-31
2024/01/19 01:07:33;;;;;;;;;;;-1.10;99.90;;;;;;5112830;27;19946;-32
2024/01/19 01:10:00;;;;;;;;;;;-1.10;99.90;;;;;;5129725;27;19924;-31
2024/01/19 01:12:27;;;;;;;;;;;-1.00;99.90;;;;;;5114750;27;19923;-31
2024/01/19 01:14:53;;;;;;;;;;;-1.00;99.90;;;;;;5113490;27;20010;-32
2024/01/19 01:17:20;;;;;;;;;;;-1.00;99.90;;;;;;5109151;27;20371;-32
2024/01/19 01:19:48;;;;;;;;;;;-0.90;99.90;;;;;;5113735;27;19962;-32
2024/01/19 01:22:16;;;;;;;;;;;-0.80;99.90;;;;;;5115161;27;19924;-31
2024/01/19 01:24:43;;;;;;;;;;;-0.80;99.90;;;;;;5113763;27;19965;-32
2024/01/19 01:27:10;;;;;;;;;;;-0.80;99.90;;;;;;5114113;27;19927;-32
2024/01/19 01:29:36;;;;;;;;;;;-0.80;99.90;;;;;;5113600;27;19923;-33
2024/01/19 01:32:03;;;;;;;;;;;-0.70;99.90;;;;;;5132504;27;20348;-32
2024/01/19 01:34:30;;;;;;;;;;;-0.70;99.90;;;;;;5113540;28;19923;-31
2024/01/19 01:36:59;;;;;;;;;;;-0.70;99.90;;;;;;5113888;28;19935;-33
2024/01/19 01:39:26;;;;;;;;;;;-0.70;99.90;;;;;;5114670;28;19972;-31
2024/01/19 01:41:53;;;;;;;;;;;-0.70;99.90;;;;;;5114256;28;19924;-31
2024/01/19 01:44:19;;;;;;;;;;;-0.60;99.90;;;;;;5114011;28;19923;-32
2024/01/19 01:46:46;;;;;;;;;;;-0.70;99.90;;;;;;5132392;28;20355;-32
2024/01/19 01:49:13;;;;;;;;;;;-0.60;99.90;;;;;;5114674;28;20314;-32
2024/01/19 01:51:40;;;;;;;;;;;-0.60;99.90;;;;;;5114780;28;19924;-31
2024/01/19 01:54:08;;;;;;;;;;;-0.50;99.90;;;;;;5132238;28;20351;-31
2024/01/19 01:56:35;;;;;;;;;;;-0.40;99.90;;;;;;5114290;28;19923;-32
2024/01/19 01:59:01;;;;;;;;;;;-0.40;99.90;;;;;;5114162;28;20454;-31
2024/01/19 02:01:28;;;;;;;;;;;-0.30;99.90;;;;;;5114184;28;19923;-32
2024/01/19 02:03:55;;;;;;;;;;;-0.40;99.90;;;;;;5132549;28;19974;-33
2024/01/19 02:06:21;;;;;;;;;;;-0.40;99.90;;;;;;5132630;28;20011;-32
2024/01/19 02:08:48;;;;;;;;;;;-0.30;99.90;;;;;;5113869;28;19924;-32
2024/01/19 02:11:16;;;;;;;;;;;-0.40;99.90;;;;;;5129330;28;20227;-32
2024/01/19 02:13:43;;;;;;;;;;;-0.40;99.90;;;;;;5114332;28;19927;-31
2024/01/19 02:16:09;;;;;;;;;;;-0.50;99.90;;;;;;5131761;28;19923;-31
2024/01/19 02:18:36;;;;;;;;;;;-0.50;99.90;;;;;;5112757;28;19977;-35
2024/01/19 02:21:02;;;;;;;;;;;-0.60;99.90;;;;;;5109508;28;19924;-34
2024/01/19 02:23:30;;;;;;;;;;;-0.60;99.90;;;;;;5113006;28;19976;-32
2024/01/19 02:25:58;;;;;;;;;;;-0.60;99.90;;;;;;5106936;28;20016;-33
2024/01/19 02:28:24;;;;;;;;;;;-0.70;99.90;;;;;;5113758;27;19966;-32
2024/01/19 02:30:51;;;;;;;;;;;-0.70;99.90;;;;;;5132090;27;19975;-32
2024/01/19 02:33:18;;;;;;;;;;;-0.70;99.90;;;;;;5118665;27;20283;-32
2024/01/19 02:35:44;;;;;;;;;;;-0.80;99.90;;;;;;5116121;27;19924;-32
2024/01/19 02:38:11;;;;;;;;;;;-0.80;99.90;;;;;;5115358;27;20284;-33
2024/01/19 02:40:38;;;;;;;;;;;-0.80;99.90;;;;;;5130940;27;19924;-33
2024/01/19 02:43:06;;;;;;;;;;;-0.80;99.90;;;;;;5100443;27;19924;-32
2024/01/19 02:45:32;;;;;;;;;;;-0.70;99.90;;;;;;5116859;27;19924;-31
2024/01/19 02:47:59;;;;;;;;;;;-0.70;99.90;;;;;;5114697;27;19928;-32
2024/01/19 02:50:29;;;;;;;;;;;-0.60;99.90;;;;;;5115408;27;19988;-34
2024/01/19 02:52:55;;;;;;;;;;;-0.50;99.90;;;;;;5117596;27;19923;-33
2024/01/19 02:55:22;;;;;;;;;;;-0.60;99.90;;;;;;5108593;27;20375;-31
2024/01/19 02:57:49;;;;;;;;;;;-0.50;99.90;;;;;;5111167;27;20548;-33
2024/01/19 03:00:17;;;;;;;;;;;-0.60;99.90;;;;;;5115394;27;19923;-32
2024/01/19 03:02:43;;;;;;;;;;;-0.50;99.90;;;;;;5116534;27;19927;-31
2024/01/19 03:05:10;;;;;;;;;;;-0.50;99.90;;;;;;5116350;27;19972;-33
2024/01/19 03:07:36;;;;;;;;;;;-0.50;99.90;;;;;;5116867;27;20387;-31
2024/01/19 03:10:03;;;;;;;;;;;-0.50;99.90;;;;;;5116837;27;19968;-32
2024/01/19 03:12:30;;;;;;;;;;;-0.50;99.90;;;;;;5133296;27;20303;-32
2024/01/19 03:14:57;;;;;;;;;;;-0.50;99.90;;;;;;5134450;27;19924;-32
2024/01/19 03:17:27;;;;;;;;;;;-0.60;99.90;;;;;;5134935;27;19923;-32
2024/01/19 03:19:53;;;;;;;;;;;-0.50;99.90;;;;;;5134103;27;19923;-32
2024/01/19 03:22:20;;;;;;;;;;;-0.50;99.90;;;;;;5116102;27;19924;-31
2024/01/19 03:24:46;;;;;;;;;;;-0.50;99.90;;;;;;5111143;27;20356;-33
2024/01/19 03:27:14;;;;;;;;;;;-0.50;99.90;;;;;;5116010;27;19923;-32
2024/01/19 03:29:41;;;;;;;;;;;-0.60;99.90;;;;;;5115904;27;19955;-33
2024/01/19 03:32:07;;;;;;;;;;;-0.60;99.90;;;;;;5134488;27;19927;-31
2024/01/19 03:34:35;;;;;;;;;;;-0.60;99.90;;;;;;5115845;27;20390;-32
2024/01/19 03:37:03;;;;;;;;;;;-0.70;99.90;;;;;;5115131;27;19931;-31
2024/01/19 03:39:30;;;;;;;;;;;-0.70;99.90;;;;;;5134665;27;20297;-31
2024/01/19 03:41:56;;;;;;;;;;;-0.80;99.90;;;;;;5100943;28;20442;-31
2024/01/19 03:44:23;;;;;;;;;;;-0.80;99.90;;;;;;5106340;27;19923;-31
2024/01/19 03:46:50;;;;;;;;;;;-0.70;99.90;;;;;;5113563;27;19928;-32
2024/01/19 03:49:17;;;;;;;;;;;-0.70;99.90;;;;;;5112876;28;19996;-32
2024/01/19 03:51:58;;;;;;;;;;;-0.70;99.90;;;;;;5134215;27;19924;-32
2024/01/19 03:54:24;;;;;;;;;;;-0.70;99.90;;;;;;5134266;27;20409;-31
2024/01/19 03:56:51;;;;;;;;;;;-0.70;99.90;;;;;;5115888;27;19924;-31
2024/01/19 03:59:18;;;;;;;;;;;-0.70;99.90;;;;;;5114706;27;19924;-34
2024/01/19 04:01:44;;;;;;;;;;;-0.70;99.90;;;;;;5114469;27;19924;-32
2024/01/19 04:04:11;;;;;;;;;;;-0.70;99.90;;;;;;5113933;27;19923;-34
2024/01/19 04:06:38;;;;;;;;;;;-0.60;99.90;;;;;;5114779;27;20335;-33
2024/01/19 04:09:06;;;;;;;;;;;-0.60;99.90;;;;;;5116058;27;19923;-31
2024/01/19 04:11:33;;;;;;;;;;;-0.70;99.90;;;;;;5110735;27;20395;-32
2024/01/19 04:14:00;;;;;;;;;;;-0.70;99.90;;;;;;5115583;27;19924;-32
2024/01/19 04:16:27;;;;;;;;;;;-0.70;99.90;;;;;;5116095;27;19924;-31
2024/01/19 04:18:53;;;;;;;;;;;-0.80;99.90;;;;;;5112850;27;20482;-32
2024/01/19 04:21:20;;;;;;;;;;;-0.80;99.90;;;;;;5107507;27;19924;-33
2024/01/19 04:23:46;;;;;;;;;;;-0.90;99.90;;;;;;5115963;27;19968;-32
2024/01/19 04:26:14;;;;;;;;;;;-0.90;99.90;;;;;;5115139;27;19993;-32
2024/01/19 04:28:41;;;;;;;;;;;-0.90;99.90;;;;;;5115935;27;19972;-32
2024/01/19 04:31:08;;;;;;;;;;;-1.00;99.90;;;;;;5119148;27;20008;-31
2024/01/19 04:33:34;;;;;;;;;;;-1.00;99.90;;;;;;5114973;27;20375;-32
2024/01/19 04:36:01;;;;;;;;;;;-1.00;99.90;;;;;;5124919;27;20332;-34
2024/01/19 04:38:28;;;;;;;;;;;-1.00;99.90;;;;;;5134095;27;20279;-33
2024/01/19 04:40:54;;;;;;;;;;;-1.00;99.90;;;;;;5114674;27;19972;-32
2024/01/19 04:43:22;;;;;;;;;;;-1.00;99.90;;;;;;5115329;27;19968;-32
2024/01/19 04:45:49;;;;;;;;;;;-1.10;99.90;;;;;;5114849;27;19924;-32
2024/01/19 04:48:16;;;;;;;;;;;-1.00;99.90;;;;;;5110303;28;19967;-33
2024/01/19 04:50:42;;;;;;;;;;;-1.10;99.90;;;;;;5114289;27;19984;-32
2024/01/19 04:53:09;;;;;;;;;;;-1.10;99.90;;;;;;5132433;27;20348;-32
2024/01/19 04:55:36;;;;;;;;;;;-1.00;99.90;;;;;;5133014;27;19923;-31
2024/01/19 04:58:02;;;;;;;;;;;-1.10;99.90;;;;;;5115247;27;19924;-32
2024/01/19 05:00:30;;;;;;;;;;;-1.00;99.90;;;;;;5133235;27;20312;-33
2024/01/19 05:03:00;;;;;;;;;;;-1.00;99.90;;;;;;5114237;27;19927;-31
2024/01/19 05:05:27;;;;;;;;;;;-1.00;99.90;;;;;;5113677;27;19924;-33
2024/01/19 05:07:55;;;;;;;;;;;-1.10;99.90;;;;;;5114974;27;19984;-32
2024/01/19 05:10:22;;;;;;;;;;;-1.10;99.90;;;;;;5114198;27;19976;-31
2024/01/19 05:12:49;;;;;;;;;;;-1.00;99.90;;;;;;5113146;27;19956;-34
2024/01/19 05:15:16;;;;;;;;;;;-1.10;99.90;;;;;;5105665;27;19924;-32
2024/01/19 05:17:44;;;;;;;;;;;-1.10;99.90;;;;;;5114974;27;20022;-31
2024/01/19 05:20:12;;;;;;;;;;;-1.10;99.90;;;;;;5132358;27;19923;-31
2024/01/19 05:22:38;;;;;;;;;;;-1.10;99.90;;;;;;5114069;27;19953;-32
2024/01/19 05:25:05;;;;;;;;;;;-1.10;99.90;;;;;;5114403;27;19923;-33
2024/01/19 05:27:31;;;;;;;;;;;-1.10;99.90;;;;;;5103243;27;19923;-33
2024/01/19 05:29:58;;;;;;;;;;;-1.10;99.90;;;;;;5113889;27;19927;-30
2024/01/19 05:32:25;;;;;;;;;;;-1.20;99.90;;;;;;5130314;27;20022;-30
2024/01/19 05:34:53;;;;;;;;;;;-1.20;99.90;;;;;;5114434;28;20374;-31
2024/01/19 05:37:19;;;;;;;;;;;-1.30;99.90;;;;;;5114723;28;19923;-32
2024/01/19 05:39:46;;;;;;;;;;;-1.20;99.90;;;;;;5114298;28;19923;-31
2024/01/19 05:42:18;;;;;;;;;;;-1.20;99.90;;;;;;5113877;28;19931;-32
2024/01/19 05:44:45;;;;;;;;;;;-1.20;99.90;;;;;;5113654;28;19923;-31
2024/01/19 05:47:11;;;;;;;;;;;-1.20;99.90;;;;;;5113512;28;20264;-33
2024/01/19 05:49:38;;;;;;;;;;;-1.30;99.90;;;;;;5132461;28;20393;-31
2024/01/19 05:52:06;;;;;;;;;;;-1.30;99.90;;;;;;5114855;28;19923;-31
2024/01/19 05:54:34;;;;;;;;;;;-1.30;99.90;;;;;;5132476;28;19927;-33
2024/01/19 05:57:00;;;;;;;;;;;-1.40;99.90;;;;;;5131366;28;19924;-32
2024/01/19 05:59:27;;;;;;;;;;;-1.30;99.90;;;;;;5113421;28;19928;-31
2024/01/19 06:01:54;;;;;;;;;;;-1.20;99.90;;;;;;5113040;27;19969;-32
2024/01/19 06:04:21;;;;;;;;;;;-1.30;99.90;;;;;;5136088;27;19923;-32
2024/01/19 06:06:47;;;;;;;;;;;-1.30;99.90;;;;;;5117658;27;19924;-31
2024/01/19 06:09:15;;;;;;;;;;;-1.30;99.90;;;;;;5113407;27;19954;-32
2024/01/19 06:11:42;;;;;;;;;;;-1.30;99.90;;;;;;5107890;28;19977;-31
2024/01/19 06:14:08;;;;;;;;;;;-1.30;99.90;;;;;;5104053;27;19956;-32
2024/01/19 06:16:38;;;;;;;;;;;-1.30;99.90;;;;;;5109393;27;20387;-32
2024/01/19 06:19:04;;;;;;;;;;;-1.20;99.90;;;;;;5114511;27;20007;-32
2024/01/19 06:21:31;;;;;;;;;;;-1.30;99.90;;;;;;5116926;27;19927;-31
2024/01/19 06:23:58;;;;;;;;;;;-1.30;99.90;;;;;;5117489;27;20436;-31
2024/01/19 06:26:32;;;;;;;;;;;-1.30;99.90;;;;;;5128733;27;20317;-32
2024/01/19 06:28:58;;;;;;;;;;;-1.30;99.90;;;;;;5099180;27;19927;-32
2024/01/19 06:31:25;;;;;;;;;;;-1.30;99.90;;;;;;5109848;27;19992;-31
2024/01/19 06:33:51;;;;;;;;;;;-1.30;99.90;;;;;;5105135;27;20447;-33
2024/01/19 06:36:18;;;;;;;;;;;-1.30;99.90;;;;;;5115976;27;19953;-32
2024/01/19 06:38:45;;;;;;;;;;;-1.20;99.90;;;;;;5112903;27;19924;-31
2024/01/19 06:41:11;;;;;;;;;;;-1.10;99.90;;;;;;5130121;27;19923;-31
2024/01/19 06:43:40;;;;;;;;;;;-1.00;99.90;;;;;;5131415;27;20576;-31
2024/01/19 06:46:06;;;;;;;;;;;-0.90;99.90;;;;;;5133376;27;20439;-32
2024/01/19 06:48:33;;;;;;;;;;;-1.00;99.90;;;;;;5124312;27;19943;-30
2024/01/19 06:50:59;;;;;;;;;;;-0.90;99.90;;;;;;5108675;27;19923;-32
2024/01/19 06:53:26;;;;;;;;;;;-0.80;99.90;;;;;;5124313;27;19967;-31
2024/01/19 06:55:53;;;;;;;;;;;-0.90;99.90;;;;;;5129747;27;19923;-33
2024/01/19 06:58:19;;;;;;;;;;;-0.90;99.90;;;;;;5120217;27;20363;-31
2024/01/19 07:00:47;;;;;;;;;;;-0.90;99.90;;;;;;5129947;27;20359;-31
2024/01/19 07:03:14;;;;;;;;;;;-0.80;99.90;;;;;;5112788;27;19977;-32
2024/01/19 07:05:42;;;;;;;;;;;-0.90;99.90;;;;;;5112085;27;19943;-34
2024/01/19 07:08:09;;;;;;;;;;;-0.90;99.90;;;;;;5127917;27;19923;-31
2024/01/19 07:10:37;;;;;;;;;;;-0.90;99.90;;;;;;5113085;27;19923;-30
2024/01/19 07:13:04;;;;;;;;;;;-0.90;99.90;;;;;;5126079;27;20027;-32
2024/01/19 07:15:30;;;;;;;;;;;-0.90;99.90;;;;;;5111029;27;19923;-31
2024/01/19 07:17:58;;;;;;;;;;;-0.90;99.90;;;;;;5113571;27;19924;-31
2024/01/19 07:20:25;;;;;;;;;;;-0.90;99.90;;;;;;5110867;27;20062;-32
2024/01/19 07:22:52;;;;;;;;;;;-1.00;99.90;;;;;;5128104;27;20354;-31
2024/01/19 07:25:18;;;;;;;;;;;-0.90;99.90;;;;;;5114923;27;19923;-32
2024/01/19 07:27:45;;;;;;;;;;;-1.00;99.90;;;;;;5114321;27;19924;-31
2024/01/19 07:30:12;;;;;;;;;;;-1.00;99.90;;;;;;5114780;27;20440;-32
2024/01/19 07:32:38;;;;;;;;;;;-1.00;99.90;;;;;;5132790;27;19923;-33
2024/01/19 07:35:07;;;;;;;;;;;-1.00;99.90;;;;;;5126290;27;19935;-32
2024/01/19 07:37:33;;;;;;;;;;;-1.00;99.90;;;;;;5129902;27;19973;-31
2024/01/19 07:40:00;;;;;;;;;;;-1.00;99.90;;;;;;5131810;27;19936;-33
2024/01/19 07:42:27;;;;;;;;;;;-0.90;99.90;;;;;;5112610;27;20491;-31
2024/01/19 07:44:53;;;;;;;;;;;-1.00;99.90;;;;;;5131658;27;20027;-32
2024/01/19 07:47:20;;;;;;;;;;;-0.90;99.90;;;;;;5131346;27;19923;-31
2024/01/19 07:49:46;;;;;;;;;;;-1.00;99.90;;;;;;5131566;27;19924;-31
2024/01/19 07:52:14;;;;;;;;;;;-0.90;99.90;;;;;;5113614;27;19977;-32
2024/01/19 07:54:41;;;;;;;;;;;-0.80;99.90;;;;;;5114482;27;20310;-31
2024/01/19 07:57:08;;;;;;;;;;;-0.90;99.90;;;;;;5133101;27;19984;-32
2024/01/19 07:59:34;;;;;;;;;;;-0.80;99.90;;;;;;5132179;27;19943;-31
2024/01/19 08:02:01;;;;;;;;;;;-0.80;99.90;;;;;;5112917;27;19927;-32
2024/01/19 08:04:28;;;;;;;;;;;-0.70;99.90;;;;;;5114514;27;19930;-33
2024/01/19 08:06:54;;;;;;;;;;;-0.70;99.90;;;;;;5132391;27;19931;-32
2024/01/19 08:09:22;;;;;;;;;;;-0.70;99.90;;;;;;5107376;27;19923;-31
2024/01/19 08:11:49;;;;;;;;;;;-0.60;99.90;;;;;;5129958;27;19964;-32
2024/01/19 08:14:15;;;;;;;;;;;-0.60;99.90;;;;;;5130412;27;19972;-32
2024/01/19 08:16:42;;;;;;;;;;;-0.60;99.90;;;;;;5112566;27;19923;-33
2024/01/19 08:19:09;;;;;;;;;;;-0.50;99.90;;;;;;5128700;27;19927;-32
2024/01/19 08:21:41;;;;;;;;;;;-0.50;99.90;;;;;;5111112;27;19923;-32
2024/01/19 08:24:08;;;;;;;;;;;-0.40;99.90;;;;;;5112845;27;19923;-31
2024/01/19 08:26:36;;;;;;;;;;;-0.40;99.90;;;;;;5131957;27;19927;-31
2024/01/19 08:29:02;;;;;;;;;;;-0.30;99.90;;;;;;5114084;27;19923;-31
2024/01/19 08:31:30;;;;;;;;;;;-0.40;99.90;;;;;;5119673;27;20424;-31
2024/01/19 08:33:57;;;;;;;;;;;-0.40;99.90;;;;;;5128780;27;19965;-31
2024/01/19 08:36:24;;;;;;;;;;;-0.40;99.90;;;;;;5113643;27;19929;-32
2024/01/19 08:38:50;;;;;;;;;;;-0.40;99.90;;;;;;5131884;27;20387;-32
2024/01/19 08:41:17;;;;;;;;;;;-0.40;99.90;;;;;;5113677;27;20313;-33
2024/01/19 08:43:45;;;;;;;;;;;-0.30;99.90;;;;;;5131987;27;20358;-33
2024/01/19 08:46:11;;;;;;;;;;;-0.30;99.90;;;;;;5113557;27;19971;-32
2024/01/19 08:48:39;;;;;;;;;;;-0.30;99.90;;;;;;5130958;27;19923;-34
2024/01/19 08:51:06;;;;;;;;;;;-0.30;99.90;;;;;;5112532;27;20375;-31
2024/01/19 08:53:33;;;;;;;;;;;-0.30;99.90;;;;;;5112989;27;19977;-32
2024/01/19 08:55:59;;;;;;;;;;;-0.20;99.90;;;;;;5131802;27;19923;-32
2024/01/19 08:58:27;;;;;;;;;;;-0.20;99.90;;;;;;5131878;27;20360;-34
2024/01/19 09:00:55;;;;;;;;;;;-0.20;99.90;;;;;;5113394;27;20370;-31
2024/01/19 09:03:23;;;;;;;;;;;-0.10;99.90;;;;;;5131812;27;20341;-31
2024/01/19 09:05:50;;;;;;;;;;;0.10;99.90;;;;;;5114058;27;19923;-32
2024/01/19 09:08:16;;;;;;;;;;;0.00;99.90;;;;;;5132292;27;19923;-34
2024/01/19 09:10:43;;;;;;;;;;;0.00;99.90;;;;;;5114085;27;20307;-32
2024/01/19 09:13:10;;;;;;;;;;;0.20;99.90;;;;;;5113468;27;19972;-32
2024/01/19 09:15:36;;;;;;;;;;;0.10;99.90;;;;;;5113664;27;20358;-32
2024/01/19 09:18:04;;;;;;;;;;;0.20;99.90;;;;;;5112475;27;19963;-32
2024/01/19 09:20:31;;;;;;;;;;;0.20;99.90;;;;;;5112802;27;20027;-32
2024/01/19 09:22:58;;;;;;;;;;;0.30;99.90;;;;;;5113348;27;19930;-32
2024/01/19 09:25:24;;;;;;;;;;;0.30;99.90;;;;;;5131885;27;19923;-32
2024/01/19 09:27:51;;;;;;;;;;;0.40;99.90;;;;;;5110523;27;19960;-32
2024/01/19 09:30:18;;;;;;;;;;;0.40;99.90;;;;;;5113045;27;20431;-33
2024/01/19 09:32:45;;;;;;;;;;;0.50;99.90;;;;;;5131334;27;19928;-31
2024/01/19 09:35:13;;;;;;;;;;;0.50;99.90;;;;;;5112615;28;20185;-32
2024/01/19 09:37:40;;;;;;;;;;;0.60;99.90;;;;;;5131476;27;20198;-31
2024/01/19 09:40:07;;;;;;;;;;;0.70;99.90;;;;;;5131419;27;20374;-32
2024/01/19 09:42:34;;;;;;;;;;;0.70;99.90;;;;;;5113170;28;19923;-34
2024/01/19 09:45:02;;;;;;;;;;;0.80;99.90;;;;;;5131443;28;19929;-34
2024/01/19 09:47:31;;;;;;;;;;;0.80;99.90;;;;;;5113351;28;20002;-33
2024/01/19 09:50:02;;;;;;;;;;;0.90;99.90;;;;;;5130424;28;19923;-32
2024/01/19 09:52:33;;;;;;;;;;;1.00;99.90;;;;;;5129473;28;19946;-32
2024/01/19 09:54:59;;;;;;;;;;;1.10;99.90;;;;;;5127845;28;19983;-32
2024/01/19 09:57:26;;;;;;;;;;;1.20;99.90;;;;;;5131594;28;19923;-34
2024/01/19 09:59:53;;;;;;;;;;;1.20;99.90;;;;;;5131055;28;19923;-31
2024/01/19 10:02:19;;;;;;;;;;;1.30;99.90;;;;;;5112765;28;19924;-32
2024/01/19 10:04:46;;;;;;;;;;;1.40;99.90;;;;;;5110823;28;20275;-31
2024/01/19 10:07:13;;;;;;;;;;;1.40;99.90;;;;;;5105215;28;20387;-32
2024/01/19 10:09:41;;;;;;;;;;;1.50;99.90;;;;;;5101485;28;19969;-30
2024/01/19 10:12:08;;;;;;;;;;;1.60;99.90;;;;;;5108877;28;20003;-32
2024/01/19 10:14:34;;;;;;;;;;;1.70;99.90;;;;;;5111153;28;19929;-31
2024/01/19 10:17:01;;;;;;;;;;;1.70;99.90;;;;;;5091797;28;19924;-31
2024/01/19 10:19:27;;;;;;;;;;;1.80;99.90;;;;;;5107684;28;19928;-32
2024/01/19 10:21:54;;;;;;;;;;;1.90;99.90;;;;;;5108961;28;20345;-31
2024/01/19 10:24:21;;;;;;;;;;;1.90;99.90;;;;;;5126500;28;19949;-32
2024/01/19 10:26:53;;;;;;;;;;;2.00;99.90;;;;;;5129147;28;19923;-32
2024/01/19 10:29:20;;;;;;;;;;;2.00;99.90;;;;;;5129385;28;20310;-31
2024/01/19 10:31:47;;;;;;;;;;;2.10;99.90;;;;;;5129365;28;20380;-32
2024/01/19 10:34:18;;;;;;;;;;;2.10;99.90;;;;;;5130942;28;19923;-33
2024/01/19 10:36:45;;;;;;;;;;;2.20;99.90;;;;;;5130876;28;19927;-35
2024/01/19 10:39:18;;;;;;;;;;;2.30;99.90;;;;;;5130165;28;19982;-33
2024/01/19 10:41:45;;;;;;;;;;;2.40;99.90;;;;;;5123567;28;20036;-30
2024/01/19 10:44:13;;;;;;;;;;;2.50;99.90;;;;;;5092246;28;19923;-31
2024/01/19 10:46:40;;;;;;;;;;;2.50;99.90;;;;;;5109608;28;19923;-30
2024/01/19 10:49:06;;;;;;;;;;;2.60;99.90;;;;;;5116043;27;19927;-31
2024/01/19 10:51:34;;;;;;;;;;;2.60;99.90;;;;;;5114389;27;19923;-31
2024/01/19 10:54:01;;;;;;;;;;;2.70;99.90;;;;;;5125463;27;19963;-34
2024/01/19 10:56:27;;;;;;;;;;;2.70;99.90;;;;;;5134006;27;19923;-32
2024/01/19 10:58:54;;;;;;;;;;;2.80;99.90;;;;;;5116129;27;19991;-33
2024/01/19 11:01:22;;;;;;;;;;;2.80;99.90;;;;;;5115769;27;20294;-31
2024/01/19 11:03:49;;;;;;;;;;;2.80;99.90;;;;;;5134491;27;20294;-32
2024/01/19 11:06:17;;;;;;;;;;;2.80;99.90;;;;;;5116271;27;19973;-34
2024/01/19 11:08:44;;;;;;;;;;;2.90;99.90;;;;;;5115254;27;20387;-32
2024/01/19 11:11:10;;;;;;;;;;;2.90;99.90;;;;;;5115541;27;19924;-32
2024/01/19 11:13:37;;;;;;;;;;;2.90;99.90;;;;;;5115093;27;19923;-32
2024/01/19 11:16:06;;;;;;;;;;;3.00;99.90;;;;;;5115277;27;19924;-31
2024/01/19 11:18:34;;;;;;;;;;;3.10;99.90;;;;;;5134269;27;19924;-32
2024/01/19 11:21:01;;;;;;;;;;;3.30;99.90;;;;;;5116004;27;19924;-32
2024/01/19 11:23:27;;;;;;;;;;;3.20;99.90;;;;;;5114498;27;20383;-31
2024/01/19 11:25:56;;;;;;;;;;;3.20;99.90;;;;;;5105668;28;19924;-32
2024/01/19 11:28:24;;;;;;;;;;;3.30;99.90;;;;;;5113454;27;19923;-33
2024/01/19 11:30:56;;;;;;;;;;;3.30;99.90;;;;;;5135362;27;19930;-33
2024/01/19 11:33:23;;;;;;;;;;;3.30;99.90;;;;;;5116393;27;19923;-32
2024/01/19 11:35:51;;;;;;;;;;;3.40;99.90;;;;;;5115284;27;19923;-32
2024/01/19 11:38:36;;;;;;;;;;;3.40;99.90;;;;;;5133935;27;19923;-32
2024/01/19 11:41:03;;;;;;;;;;;3.50;99.90;;;;;;5115307;27;19976;-33
2024/01/19 11:43:36;;;;;;;;;;;3.50;99.90;;;;;;5116580;27;19971;-32
2024/01/19 11:46:02;;;;;;;;;;;3.60;99.90;;;;;;5113647;27;19945;-31
2024/01/19 11:48:39;;;;;;;;;;;3.60;99.90;;;;;;5114823;27;19976;-33
2024/01/19 11:51:07;;;;;;;;;;;3.70;99.90;;;;;;5115320;27;20011;-32
2024/01/19 11:53:48;;;;;;;;;;;3.70;99.90;;;;;;5114631;27;19965;-32
2024/01/19 11:56:20;;;;;;;;;;;3.80;99.90;;;;;;5115141;27;20439;-32
2024/01/19 11:58:47;;;;;;;;;;;3.80;99.90;;;;;;5115953;27;19984;-32
2024/01/19 12:01:14;;;;;;;;;;;3.80;99.90;;;;;;5115961;27;19923;-33
2024/01/19 12:03:41;;;;;;;;;;;3.90;99.90;;;;;;5114586;27;19928;-32
2024/01/19 12:06:09;;;;;;;;;;;3.90;99.90;;;;;;5115357;27;19931;-32
2024/01/19 12:08:35;;;;;;;;;;;4.00;99.90;;;;;;5131135;27;19935;-33
2024/01/19 12:11:02;;;;;;;;;;;4.00;99.90;;;;;;5115670;27;19924;-33
2024/01/19 12:13:29;;;;;;;;;;;4.10;99.90;;;;;;5115064;27;20005;-34
2024/01/19 12:15:56;;;;;;;;;;;4.10;99.90;;;;;;5134138;27;20003;-32
2024/01/19 12:18:22;;;;;;;;;;;4.10;99.90;;;;;;5114840;27;19976;-32
2024/01/19 12:20:49;;;;;;;;;;;4.10;99.90;;;;;;5114679;27;20251;-31
2024/01/19 12:23:18;;;;;;;;;;;4.20;99.90;;;;;;5115307;27;19976;-33
2024/01/19 12:25:45;;;;;;;;;;;4.20;99.90;;;;;;5115828;27;19924;-31
2024/01/19 12:28:13;;;;;;;;;;;4.30;99.90;;;;;;5114306;27;19928;-33
2024/01/19 12:30:39;;;;;;;;;;;4.30;99.90;;;;;;5114908;27;20009;-32
2024/01/19 12:33:15;;;;;;;;;;;4.30;99.90;;;;;;5113976;27;19927;-32
2024/01/19 12:35:42;;;;;;;;;;;4.30;99.90;;;;;;5133376;27;19930;-31
2024/01/19 12:38:08;;;;;;;;;;;4.40;99.90;;;;;;5118750;27;19977;-32
2024/01/19 12:40:38;;;;;;;;;;;4.40;99.90;;;;;;5112802;27;19923;-32
2024/01/19 12:43:05;;;;;;;;;;;4.40;99.90;;;;;;5115135;27;19927;-32
2024/01/19 12:45:32;;;;;;;;;;;4.40;99.90;;;;;;5112861;27;19968;-32
2024/01/19 12:48:00;;;;;;;;;;;4.40;99.90;;;;;;5115081;27;20375;-32
2024/01/19 12:50:26;;;;;;;;;;;4.40;99.90;;;;;;5115170;27;20377;-33
2024/01/19 12:52:53;;;;;;;;;;;4.40;99.90;;;;;;5133310;27;19935;-32
2024/01/19 12:55:26;;;;;;;;;;;4.50;99.90;;;;;;5115529;27;19976;-33
2024/01/19 12:57:54;;;;;;;;;;;4.50;99.90;;;;;;5114146;27;19968;-32
2024/01/19 13:00:23;;;;;;;;;;;4.50;99.90;;;;;;5111111;27;19985;-35
2024/01/19 13:02:52;;;;;;;;;;;4.50;99.90;;;;;;5126236;27;19935;-34
2024/01/19 13:05:19;;;;;;;;;;;4.50;99.90;;;;;;5107906;27;19931;-34
2024/01/19 13:07:45;;;;;;;;;;;4.50;99.90;;;;;;5112712;27;19980;-33
2024/01/19 13:10:12;;;;;;;;;;;4.50;99.90;;;;;;5114314;28;19973;-34
2024/01/19 13:12:39;;;;;;;;;;;4.60;99.90;;;;;;5110565;28;19977;-33
2024/01/19 13:15:07;;;;;;;;;;;4.60;99.90;;;;;;5104786;27;19987;-33
2024/01/19 13:17:34;;;;;;;;;;;4.60;99.90;;;;;;5114944;27;20341;-33
2024/01/19 13:20:03;;;;;;;;;;;4.70;99.90;;;;;;5113789;27;20375;-33
2024/01/19 13:22:30;;;;;;;;;;;4.70;99.90;;;;;;5131989;27;19963;-33
2024/01/19 13:24:57;;;;;;;;;;;4.70;99.90;;;;;;5114632;27;19923;-33
2024/01/19 13:27:24;;;;;;;;;;;4.60;99.90;;;;;;5115235;27;20016;-33
2024/01/19 13:29:50;;;;;;;;;;;4.70;99.90;;;;;;5113121;27;19924;-32
2024/01/19 13:32:18;;;;;;;;;;;4.60;99.90;;;;;;5112667;28;19967;-33
2024/01/19 13:34:45;;;;;;;;;;;4.70;99.90;;;;;;5100678;27;19972;-32
2024/01/19 13:37:11;;;;;;;;;;;4.60;99.90;;;;;;5132806;27;19992;-33
2024/01/19 13:39:38;;;;;;;;;;;4.60;99.90;;;;;;5114563;27;20383;-33
2024/01/19 13:42:05;;;;;;;;;;;4.60;99.90;;;;;;5114434;28;19960;-33
2024/01/19 13:44:32;;;;;;;;;;;4.70;99.90;;;;;;5110237;28;19978;-33
2024/01/19 13:46:58;;;;;;;;;;;4.60;99.90;;;;;;5132282;28;20219;-33
2024/01/19 13:49:26;;;;;;;;;;;4.60;99.90;;;;;;5114529;28;20379;-33
2024/01/19 13:51:53;;;;;;;;;;;4.60;99.90;;;;;;5113839;28;20427;-34
2024/01/19 13:54:19;;;;;;;;;;;4.60;99.90;;;;;;5112817;28;19923;-33
2024/01/19 13:56:46;;;;;;;;;;;4.60;99.90;;;;;;5114869;28;19928;-33
2024/01/19 13:59:13;;;;;;;;;;;4.50;99.90;;;;;;5132790;28;19927;-34
2024/01/19 14:01:39;;;;;;;;;;;4.50;99.90;;;;;;5114534;28;19972;-33
2024/01/19 14:04:06;;;;;;;;;;;4.50;99.90;;;;;;5105357;28;19981;-33
2024/01/19 14:06:34;;;;;;;;;;;4.40;99.90;;;;;;5103811;28;20006;-34
2024/01/19 14:09:02;;;;;;;;;;;4.40;99.90;;;;;;5108926;28;19924;-34
2024/01/19 14:11:28;;;;;;;;;;;4.40;99.90;;;;;;5100142;28;20011;-34
2024/01/19 14:13:55;;;;;;;;;;;4.40;99.90;;;;;;5114680;28;20396;-33
2024/01/19 14:16:21;;;;;;;;;;;4.30;99.90;;;;;;5114697;28;20413;-34
2024/01/19 14:18:48;;;;;;;;;;;4.30;99.90;;;;;;5132889;28;20025;-34
2024/01/19 14:21:16;;;;;;;;;;;4.20;99.90;;;;;;5114282;27;19953;-34